James Cook — MLRM6 — position and weather

sailwx.info

Track history (hours):
 
Tides and Currents Weather Stations Pressure Air Temp Water Temp Dewpoint Dewpoint Depression Visibility Wind Speed Wind Dir Waves Ship Positions

Oceanographic research ship James Cook (UK)

Last reported at 2020-Jan-21 16:00 UTC. Time now 2020-Jan-22 00:21 UTC.
Position N 27°00' W 079°12'.

Length 89.2 m; beam 18.6 m; draft 5.7 m.

MMSI: 235010700.

Wind from 020 at 15 knots

Barometer 1018.4 mb
Air temperature 20.8 ° C
Visibility: greater than 5.4 NM
Dewpoint 16.0 ° C
Water temperature 25.1 ° C

Date/timePositionNaut miles runAvg speedWind from/ knotsBaromVisibWave heightAir tempDewpointWater temp
2020-Jan-21 16:00N 27°00' W 079°12'36 1.9 020 / 151018.4 5.4 20.816.025.1
2020-Jan-20 20:59N 27°00' W 079°52'4 1.5
2020-Jan-20 18:30N 27°01' W 079°56'3 2.0
2020-Jan-20 17:01N 27°01' W 079°59'1 0.3
2020-Jan-20 15:00N 27°00' W 079°59'1 0.5
2020-Jan-20 13:31N 26°60' W 080°00'4 2.3
2020-Jan-20 12:00N 26°59' W 079°56'50 2.4
2020-Jan-19 15:00N 26°12' W 079°36'2110.5 180 / 201022.3 5.4 25.116.526.3
2020-Jan-19 13:00N 26°07' W 079°59'8 3.8
2020-Jan-19 10:58N 26°05' W 080°07'0 0.0
2020-Jan-19 10:28N 26°05' W 080°07'0 0.0
2020-Jan-19 09:59N 26°05' W 080°07'0 0.0
2020-Jan-19 08:30N 26°05' W 080°07'0 0.0
2020-Jan-19 06:28N 26°05' W 080°07'0 0.0
2020-Jan-19 04:29N 26°05' W 080°07'0 0.0
2020-Jan-19 03:29N 26°05' W 080°07'0 0.0
2020-Jan-19 00:58N 26°05' W 080°07'0 0.0
2020-Jan-19 00:28N 26°05' W 080°07'0 0.0
2020-Jan-18 21:59N 26°05' W 080°07'0 0.0
2020-Jan-18 21:30N 26°05' W 080°07'0 0.0
2020-Jan-18 20:30N 26°05' W 080°07'0 0.0
2020-Jan-18 19:28N 26°05' W 080°07'0 0.0
2020-Jan-18 17:59N 26°05' W 080°07'0 0.0
2020-Jan-18 17:29N 26°05' W 080°07'0 0.0
2020-Jan-18 16:29N 26°05' W 080°07'0 0.0
2020-Jan-18 15:30N 26°05' W 080°07'0 0.0
2020-Jan-18 15:00N 26°05' W 080°07'0 0.0
2020-Jan-18 13:28N 26°05' W 080°07'0 0.0
2020-Jan-18 10:30N 26°05' W 080°07'0 0.0
2020-Jan-18 10:00N 26°05' W 080°07'0 0.0
2020-Jan-18 06:29N 26°05' W 080°07'0 0.0
2020-Jan-18 05:59N 26°05' W 080°07'0 0.0
2020-Jan-18 04:00N 26°05' W 080°07'0 0.0
2020-Jan-18 01:58N 26°05' W 080°07'0 0.0
2020-Jan-18 00:59N 26°05' W 080°07'0 0.0
2020-Jan-17 23:59N 26°05' W 080°07'0 0.0
2020-Jan-17 19:59N 26°05' W 080°07'0 0.0
2020-Jan-17 18:29N 26°05' W 080°07'0 0.0
2020-Jan-17 17:30N 26°05' W 080°07'0 0.0
2020-Jan-17 16:30N 26°05' W 080°07'0 0.0
2020-Jan-17 14:58N 26°05' W 080°07'0 0.0
2020-Jan-17 11:30N 26°05' W 080°07'0 0.0
2020-Jan-17 08:29N 26°05' W 080°07'0 0.0
2020-Jan-17 07:00N 26°05' W 080°07'0 0.0
2020-Jan-17 04:58N 26°05' W 080°07'0 0.0
2020-Jan-17 04:28N 26°05' W 080°07'0 0.0
2020-Jan-17 03:59N 26°05' W 080°07'0 0.0
2020-Jan-17 02:29N 26°05' W 080°07'0 0.0
2020-Jan-17 00:30N 26°05' W 080°07'0 0.0
2020-Jan-16 17:28N 26°05' W 080°07'0 0.0
2020-Jan-16 16:59N 26°05' W 080°07'3 1.2
2020-Jan-16 14:00N 26°06' W 080°03'9 8.7
2020-Jan-16 13:00N 26°13' W 079°57'4 8.2
2020-Jan-16 12:30N 26°16' W 079°55'4 8.2
2020-Jan-16 12:00N 26°20' W 079°52'8 8.3
2020-Jan-16 11:00N 26°27' W 079°48'173 8.2
2020-Jan-15 14:00N 28°48' W 077°54'26911.7 190 / 91025.0 5.4 24.519.725.2
2020-Jan-14 15:00N 32°24' W 074°48'29611.8 180 / 131028.6 5.4 22.120.121.8
2020-Jan-13 14:00N 36°24' W 071°18'168 7.7 220 / 231029.9 5.4 21.521.221.4
2020-Jan-12 16:00N 38°36' W 069°06'   210 / 371023.7 20.017.416.1
Track history (hours):
 
Tides and Currents Weather Stations Pressure Air Temp Water Temp Dewpoint Dewpoint Depression Visibility Wind Speed Wind Dir Waves Ship Positions

Oceanographic research ship James Cook (UK)

Last reported at 2020-Jan-21 16:00 UTC. Time now 2020-Jan-22 00:21 UTC.
Position N 27°00' W 079°12'.

Length 89.2 m; beam 18.6 m; draft 5.7 m.

MMSI: 235010700.

Wind from 020 at 15 knots

Barometer 1018.4 mb
Air temperature 20.8 ° C
Visibility: greater than 5.4 NM
Dewpoint 16.0 ° C
Water temperature 25.1 ° C

Date/timePositionNaut miles runAvg speedWind from/ knotsBaromVisibWave heightAir tempDewpointWater temp
2020-Jan-21 16:00N 27°00' W 079°12'36 1.9 020 / 151018.4 5.4 20.816.025.1
2020-Jan-20 20:59N 27°00' W 079°52'4 1.5
2020-Jan-20 18:30N 27°01' W 079°56'3 2.0
2020-Jan-20 17:01N 27°01' W 079°59'1 0.3
2020-Jan-20 15:00N 27°00' W 079°59'1 0.5
2020-Jan-20 13:31N 26°60' W 080°00'4 2.3
2020-Jan-20 12:00N 26°59' W 079°56'50 2.4
2020-Jan-19 15:00N 26°12' W 079°36'2110.5 180 / 201022.3 5.4 25.116.526.3
2020-Jan-19 13:00N 26°07' W 079°59'8 3.8
2020-Jan-19 10:58N 26°05' W 080°07'0 0.0
2020-Jan-19 10:28N 26°05' W 080°07'0 0.0
2020-Jan-19 09:59N 26°05' W 080°07'0 0.0
2020-Jan-19 08:30N 26°05' W 080°07'0 0.0
2020-Jan-19 06:28N 26°05' W 080°07'0 0.0
2020-Jan-19 04:29N 26°05' W 080°07'0 0.0
2020-Jan-19 03:29N 26°05' W 080°07'0 0.0
2020-Jan-19 00:58N 26°05' W 080°07'0 0.0
2020-Jan-19 00:28N 26°05' W 080°07'0 0.0
2020-Jan-18 21:59N 26°05' W 080°07'0 0.0
2020-Jan-18 21:30N 26°05' W 080°07'0 0.0
2020-Jan-18 20:30N 26°05' W 080°07'0 0.0
2020-Jan-18 19:28N 26°05' W 080°07'0 0.0
2020-Jan-18 17:59N 26°05' W 080°07'0 0.0
2020-Jan-18 17:29N 26°05' W 080°07'0 0.0
2020-Jan-18 16:29N 26°05' W 080°07'0 0.0
2020-Jan-18 15:30N 26°05' W 080°07'0 0.0
2020-Jan-18 15:00N 26°05' W 080°07'0 0.0
2020-Jan-18 13:28N 26°05' W 080°07'0 0.0
2020-Jan-18 10:30N 26°05' W 080°07'0 0.0
2020-Jan-18 10:00N 26°05' W 080°07'0 0.0
2020-Jan-18 06:29N 26°05' W 080°07'0 0.0
2020-Jan-18 05:59N 26°05' W 080°07'0 0.0
2020-Jan-18 04:00N 26°05' W 080°07'0 0.0
2020-Jan-18 01:58N 26°05' W 080°07'0 0.0
2020-Jan-18 00:59N 26°05' W 080°07'0 0.0
2020-Jan-17 23:59N 26°05' W 080°07'0 0.0
2020-Jan-17 19:59N 26°05' W 080°07'0 0.0
2020-Jan-17 18:29N 26°05' W 080°07'0 0.0
2020-Jan-17 17:30N 26°05' W 080°07'0 0.0
2020-Jan-17 16:30N 26°05' W 080°07'0 0.0
2020-Jan-17 14:58N 26°05' W 080°07'0 0.0
2020-Jan-17 11:30N 26°05' W 080°07'0 0.0
2020-Jan-17 08:29N 26°05' W 080°07'0 0.0
2020-Jan-17 07:00N 26°05' W 080°07'0 0.0
2020-Jan-17 04:58N 26°05' W 080°07'0 0.0
2020-Jan-17 04:28N 26°05' W 080°07'0 0.0
2020-Jan-17 03:59N 26°05' W 080°07'0 0.0
2020-Jan-17 02:29N 26°05' W 080°07'0 0.0
2020-Jan-17 00:30N 26°05' W 080°07'0 0.0
2020-Jan-16 17:28N 26°05' W 080°07'0 0.0
2020-Jan-16 16:59N 26°05' W 080°07'3 1.2
2020-Jan-16 14:00N 26°06' W 080°03'9 8.7
2020-Jan-16 13:00N 26°13' W 079°57'4 8.2
2020-Jan-16 12:30N 26°16' W 079°55'4 8.2
2020-Jan-16 12:00N 26°20' W 079°52'8 8.3
2020-Jan-16 11:00N 26°27' W 079°48'173 8.2
2020-Jan-15 14:00N 28°48' W 077°54'26911.7 190 / 91025.0 5.4 24.519.725.2
2020-Jan-14 15:00N 32°24' W 074°48'29611.8 180 / 131028.6 5.4 22.120.121.8
2020-Jan-13 14:00N 36°24' W 071°18'168 7.7 220 / 231029.9 5.4 21.521.221.4
2020-Jan-12 16:00N 38°36' W 069°06'   210 / 371023.7 20.017.416.1

Dump ship's entire track history